Terminal Aerodrome Forecast
Issued by NWS

Home | Current Version | Previous Version | Text Only | Print | Product List | Glossary On
Versions: 1 2 3 4 5 6 7 8 9 10 11 12 13 14 15 16 17 18
499
FTUS41 KBGM 230900 AAA
TAFELM
TAF AMD
KELM 230900Z 2309/2406 VRB03KT P6SM BKN080
      TEMPO 2309/2312 3SM -SHRA BR OVC015
     FM231200 06004KT P6SM BKN035
     FM231700 12005KT P6SM BKN050
     FM232100 14004KT 5SM -TSRA BR OVC040CB
     FM240300 13004KT 4SM -SHRA BR OVC025=

USA.gov is the U.S. government's official web portal to all federal, state and local government web resources and services.